createdAt,value
2022-11-02T00:09:01.687Z,99
2022-11-02T00:19:02.744Z,99
2022-11-02T00:28:52.220Z,99
2022-11-02T00:38:51.737Z,99
2022-11-02T00:48:51.851Z,99
2022-11-02T00:58:51.632Z,99
2022-11-02T01:08:51.840Z,99
2022-11-02T01:18:56.586Z,99
2022-11-02T01:28:51.572Z,99
2022-11-02T01:38:51.634Z,99
2022-11-02T01:48:58.745Z,99
2022-11-02T01:58:51.886Z,99
2022-11-02T02:08:57.395Z,99
2022-11-02T02:18:51.844Z,99
2022-11-02T02:28:51.849Z,99
2022-11-02T02:38:52.935Z,99
2022-11-02T02:48:51.868Z,99
2022-11-02T02:58:51.942Z,99
2022-11-02T03:08:53.545Z,99
2022-11-02T03:18:51.903Z,99
2022-11-02T03:28:51.912Z,99
2022-11-02T03:38:51.933Z,99
2022-11-02T03:44:26.131Z,99
2022-11-02T03:48:52.988Z,99
2022-11-02T03:58:51.979Z,99
2022-11-02T04:08:52.819Z,99
2022-11-02T04:18:51.970Z,99
2022-11-02T04:28:51.966Z,99
2022-11-02T04:31:36.508Z,99
2022-11-02T04:38:51.935Z,99
2022-11-02T04:48:51.944Z,99
2022-11-02T04:58:51.968Z,99
2022-11-02T05:08:52.090Z,99
2022-11-02T05:18:52.003Z,99
2022-11-02T05:28:52.065Z,99
2022-11-02T05:38:52.071Z,99
2022-11-02T05:48:52.046Z,99
2022-11-02T05:52:57.863Z,99
2022-11-02T06:08:55.925Z,99
2022-11-02T06:18:52.139Z,99
2022-11-02T06:28:52.131Z,99
2022-11-02T06:38:52.193Z,99
2022-11-02T06:48:52.200Z,99
2022-11-02T06:58:52.186Z,99
2022-11-02T07:08:52.287Z,99
2022-11-02T07:18:52.258Z,99
2022-11-02T07:28:56.702Z,99
2022-11-02T07:38:52.296Z,99
2022-11-02T07:48:52.281Z,99
2022-11-02T07:58:52.380Z,99
2022-11-02T08:08:52.312Z,99
2022-11-02T08:18:52.397Z,99
2022-11-02T08:28:52.374Z,99
2022-11-02T08:38:57.675Z,99
2022-11-02T08:42:13.164Z,99
2022-11-02T08:48:50.548Z,99
2022-11-02T08:53:59.557Z,99
2022-11-02T08:57:40.106Z,99
2022-11-02T09:05:41.955Z,99
2022-11-02T09:10:16.085Z,99
2022-11-02T09:18:52.450Z,99
2022-11-02T09:28:52.551Z,99
2022-11-02T09:40:35.714Z,99
2022-11-02T09:46:03.637Z,99
2022-11-02T09:48:52.564Z,99
2022-11-02T09:58:52.580Z,99
2022-11-02T10:08:52.623Z,99
2022-11-02T10:18:52.776Z,99
2022-11-02T10:28:52.661Z,99
2022-11-02T10:38:52.767Z,99
2022-11-02T10:48:52.663Z,99
2022-11-02T10:58:52.772Z,99
2022-11-02T11:08:52.694Z,99
2022-11-02T11:28:55.193Z,99
2022-11-02T11:38:52.903Z,99
2022-11-02T11:48:52.789Z,99
2022-11-02T11:58:52.838Z,99
2022-11-02T12:09:03.147Z,99
2022-11-02T12:18:52.889Z,99
2022-11-02T12:28:52.880Z,99
2022-11-02T12:48:44.392Z,96
2022-11-02T12:48:54.128Z,91
2022-11-02T12:58:52.949Z,90
2022-11-02T13:08:52.981Z,91
2022-11-02T13:18:53.314Z,90
2022-11-02T13:28:52.994Z,90
2022-11-02T13:38:53.015Z,90
2022-11-02T13:48:53.061Z,88
2022-11-02T13:59:47.667Z,91
2022-11-02T14:08:53.061Z,91
2022-11-02T14:18:53.093Z,91
2022-11-02T14:28:53.195Z,93
2022-11-02T14:38:53.202Z,94
2022-11-02T14:45:27.787Z,94
2022-11-02T14:48:53.148Z,95
2022-11-02T14:58:55.217Z,96
2022-11-02T15:08:53.496Z,97
2022-11-02T15:18:53.601Z,98
2022-11-02T15:28:53.561Z,98
2022-11-02T15:38:53.572Z,99
2022-11-02T15:48:53.993Z,99
2022-11-02T15:58:53.584Z,99
2022-11-02T16:08:53.744Z,99
2022-11-02T16:28:53.804Z,99
2022-11-02T16:38:53.662Z,99
2022-11-02T16:49:01.952Z,99
2022-11-02T16:58:53.689Z,99
2022-11-02T17:08:53.922Z,99
2022-11-02T17:18:53.871Z,99
2022-11-02T17:28:53.769Z,99
2022-11-02T17:38:54.090Z,99
2022-11-02T17:48:53.864Z,99
2022-11-02T17:58:58.795Z,99
2022-11-02T18:08:53.844Z,99
2022-11-02T18:18:53.801Z,99
2022-11-02T18:28:53.882Z,99
2022-11-02T18:38:58.915Z,99
2022-11-02T18:48:13.860Z,99
2022-11-02T18:51:30.233Z,99
2022-11-02T19:01:12.627Z,99
2022-11-02T19:08:53.986Z,99
2022-11-02T19:18:53.959Z,99
2022-11-02T19:28:54.065Z,99
2022-11-02T19:38:54.020Z,99
2022-11-02T19:48:54.020Z,99
2022-11-02T19:58:54.009Z,99
2022-11-02T20:08:54.107Z,99
2022-11-02T20:18:54.020Z,99
2022-11-02T20:28:54.044Z,99
2022-11-02T20:38:54.094Z,99
2022-11-02T20:48:54.068Z,99
2022-11-02T20:58:55.771Z,99
2022-11-02T21:08:54.156Z,99
2022-11-02T21:18:54.116Z,99
2022-11-02T21:28:54.231Z,99
2022-11-02T21:37:34.174Z,99
2022-11-02T21:39:59.420Z,99
2022-11-02T21:46:21.683Z,99
2022-11-02T21:47:42.860Z,99
2022-11-02T21:51:35.375Z,99
2022-11-02T21:58:22.632Z,99
2022-11-02T22:04:00.947Z,99
2022-11-02T22:08:54.200Z,99
2022-11-02T22:32:03.810Z,99
2022-11-02T22:36:59.894Z,99
2022-11-02T22:47:31.876Z,99
2022-11-02T22:49:03.029Z,99
2022-11-02T22:49:03.220Z,99
2022-11-02T22:58:55.090Z,99
2022-11-02T23:08:58.178Z,99
2022-11-02T23:18:56.014Z,99
2022-11-02T23:28:54.939Z,99
2022-11-02T23:38:54.805Z,99
2022-11-02T23:48:57.524Z,99
2022-11-02T23:58:55.159Z,99
